Time;durP1;ratioP1;P1;durP2;ratioP2;P2;SDS_P1;SDS_P2;PMS_P1;PMS_P2;Temp;Humidity;BMP_temperature;BMP_pressure;BME280_temperature;BME280_humidity;BME280_pressure;Samples;Min_cycle;Max_cycle;Signal;HPM_P1;HPM_P2
2023/10/10 00:00:49;;;;;;;11.15;5.90;;;;;;;;;;2308039;76;50786;-78
2023/10/10 00:03:51;;;;;;;8.35;5.75;;;;;;;20.14;56.06;101173.86;2281011;76;22306;-78
2023/10/10 00:06:54;;;;;;;9.13;6.30;;;;;;;20.11;56.13;101171.52;2282223;76;52544;-78
2023/10/10 00:09:56;;;;;;;9.88;6.12;;;;;;;20.11;56.22;101166.66;2308488;76;50195;-79
2023/10/10 00:13:04;;;;;;;9.10;6.00;;;;;;;20.11;56.19;101170.69;2257185;77;51145;-80
2023/10/10 00:16:05;;;;;;;10.38;5.83;;;;;;;20.13;56.09;101164.12;2257333;77;22295;-79
2023/10/10 00:22:36;;;;;;;8.83;5.80;;;;;;;20.27;55.88;101167.02;2257898;76;22301;-79
2023/10/10 00:25:30;;;;;;;11.40;6.03;;;;;;;20.28;55.83;101164.67;2260172;77;22352;-79
2023/10/10 00:28:33;;;;;;;8.10;5.90;;;;;;;20.25;55.87;101165.87;2281579;76;22795;-78
2023/10/10 00:31:34;;;;;;;8.23;5.10;;;;;;;20.19;55.92;101160.73;2282736;76;22422;-78
2023/10/10 00:34:37;;;;;;;9.08;5.95;;;;;;;20.15;56.02;101151.34;2257175;78;51511;-79
2023/10/10 00:37:40;;;;;;;8.78;5.22;;;;;;;20.12;56.12;101155.74;2308492;76;50391;-79
2023/10/10 00:40:46;;;;;;;7.30;5.50;;;;;;;20.10;56.17;101149.70;2257560;77;50551;-78
2023/10/10 00:43:46;;;;;;;7.67;5.28;;;;;;;20.10;56.18;101149.70;2280979;76;23146;-78
2023/10/10 00:46:54;;;;;;;8.48;5.85;;;;;;;20.14;56.04;101145.66;2284687;76;52828;-78
2023/10/10 00:49:54;;;;;;;8.25;5.20;;;;;;;20.23;55.90;101149.92;2283028;76;22364;-79
2023/10/10 00:52:56;;;;;;;9.28;5.37;;;;;;;20.25;55.76;101147.58;2288412;77;51546;-79
2023/10/10 00:55:59;;;;;;;9.38;5.42;;;;;;;20.22;55.78;101146.09;2284067;77;51657;-79
2023/10/10 00:59:03;;;;;;;10.15;5.58;;;;;;;20.16;55.99;101150.31;2281697;77;50725;-78
2023/10/10 01:02:05;;;;;;;8.00;5.25;;;;;;;20.13;56.05;101143.14;2281275;78;51322;-79
2023/10/10 01:05:13;;;;;;;7.45;5.37;;;;;;;20.11;56.09;101137.94;2257231;77;53293;-78
2023/10/10 01:08:17;;;;;;;7.40;4.95;;;;;;;20.11;56.12;101142.48;2258453;77;50773;-79
2023/10/10 01:11:19;;;;;;;7.17;4.28;;;;;;;20.11;56.24;101147.85;2282921;76;51074;-79
2023/10/10 01:14:26;;;;;;;7.55;4.22;;;;;;;20.10;56.15;101156.42;2308246;76;50771;-78
2023/10/10 01:17:33;;;;;;;8.60;5.35;;;;;;;20.14;56.05;101157.75;2258484;76;22419;-78
2023/10/10 01:20:45;;;;;;;7.95;4.80;;;;;;;20.19;55.88;101158.04;2258868;77;50769;-78
2023/10/10 01:23:45;;;;;;;6.05;4.78;;;;;;;20.21;55.81;101159.19;2265741;77;22436;-78
2023/10/10 01:26:47;;;;;;;8.25;5.55;;;;;;;20.26;55.69;101151.41;2310481;75;22829;-78
2023/10/10 01:33:00;;;;;;;7.50;4.92;;;;;;;20.18;55.82;101144.77;2235831;78;22197;-78
2023/10/10 01:36:02;;;;;;;6.90;4.87;;;;;;;20.13;55.97;101142.63;2258146;78;22394;-79
2023/10/10 01:39:08;;;;;;;6.60;4.53;;;;;;;20.12;56.01;101139.63;2257705;77;22166;-78
2023/10/10 01:42:12;;;;;;;7.03;4.40;;;;;;;20.10;56.08;101138.96;2280586;77;51878;-78
2023/10/10 01:45:18;;;;;;;5.65;4.53;;;;;;;20.09;56.14;101135.96;2283024;76;49362;-78
2023/10/10 01:48:18;;;;;;;8.63;4.78;;;;;;;20.15;55.92;101133.88;2307690;76;22453;-78
2023/10/10 01:51:20;;;;;;;6.58;4.50;;;;;;;20.22;55.79;101121.91;2280693;77;50745;-78
2023/10/10 01:54:34;;;;;;;8.35;4.67;;;;;;;20.23;55.72;101120.36;2288328;76;51435;-78
2023/10/10 01:57:28;;;;;;;7.45;4.35;;;;;;;20.27;55.60;101119.99;2255567;78;22198;-77
2023/10/10 02:00:34;;;;;;;5.80;4.55;;;;;;;20.26;55.60;101131.77;2282605;76;52496;-78
2023/10/10 02:03:36;;;;;;;6.22;4.17;;;;;;;20.19;55.70;101116.88;2281313;76;22320;-78
2023/10/10 02:06:40;;;;;;;8.10;4.65;;;;;;;20.13;55.90;101122.47;2257634;77;51500;-78
2023/10/10 02:09:43;;;;;;;7.95;4.50;;;;;;;20.11;55.97;101116.44;2281222;77;25478;-78
2023/10/10 02:12:46;;;;;;;6.83;4.55;;;;;;;20.11;56.04;101120.98;2280775;77;50719;-78
2023/10/10 02:15:48;;;;;;;7.00;4.28;;;;;;;20.10;56.04;101118.81;2308432;76;50088;-78
2023/10/10 02:18:54;;;;;;;4.78;4.05;;;;;;;20.14;55.92;101104.02;2281031;76;50382;-78
2023/10/10 02:28:43;;;;;;;5.83;4.28;;;;;;;20.26;55.62;101108.93;2235864;76;22068;-78
2023/10/10 02:31:32;;;;;;;5.08;4.03;;;;;;;20.24;55.60;101109.09;2285747;76;21995;-78
2023/10/10 02:34:42;;;;;;;5.80;4.28;;;;;;;20.18;55.75;101112.53;2223043;77;51076;-77
2023/10/10 02:37:41;;;;;;;6.17;3.95;;;;;;;20.12;55.93;101114.61;2279416;76;23070;-78
2023/10/10 02:40:43;;;;;;;4.75;3.75;;;;;;;20.10;55.97;101125.53;2257878;77;51363;-78
2023/10/10 02:47:06;;;;;;;7.03;3.60;;;;;;;20.08;56.04;101126.72;2264380;76;21774;-78
2023/10/10 02:50:12;;;;;;;6.00;3.90;;;;;;;20.15;55.89;101129.84;2220139;79;52570;-79
2023/10/10 02:53:18;;;;;;;5.50;3.80;;;;;;;20.19;55.83;101122.25;2226139;78;51301;-79
2023/10/10 02:56:19;;;;;;;5.15;3.80;;;;;;;20.23;55.67;101128.42;2256540;77;22303;-79
2023/10/10 02:59:24;;;;;;;5.97;3.87;;;;;;;20.26;55.58;101123.70;2283495;76;51585;-78
2023/10/10 03:03:18;;;;;;;4.03;3.30;;;;;;;20.20;55.68;101117.22;2258086;78;22261;-79
2023/10/10 03:05:39;;;;;;;6.08;3.80;;;;;;;20.16;55.77;101105.98;2266193;78;22282;-78
2023/10/10 03:08:51;;;;;;;5.87;4.03;;;;;;;20.12;55.88;101107.90;2234647;78;49772;-78
2023/10/10 03:12:03;;;;;;;6.17;3.30;;;;;;;20.09;55.97;101097.48;2279398;76;22402;-77
2023/10/10 03:15:49;;;;;;;4.90;3.67;;;;;;;20.08;56.02;101093.97;2235364;78;22341;-78
2023/10/10 03:21:18;;;;;;;9.10;4.03;;;;;;;20.15;55.87;101088.20;2258738;78;22466;-78
2023/10/10 03:27:54;;;;;;;4.47;3.45;;;;;;;20.16;55.76;101096.58;2283445;77;22366;-78
2023/10/10 03:31:22;;;;;;;4.60;3.42;;;;;;;20.15;55.76;101094.92;2281563;76;22351;-78
2023/10/10 03:34:35;;;;;;;6.50;3.75;;;;;;;20.11;55.93;101092.26;2262659;78;22339;-78
2023/10/10 05:23:35;;;;;;;15.72;4.40;;;;;;;20.14;57.62;101122.81;2248527;77;22340;-80
2023/10/10 05:26:45;;;;;;;15.18;4.47;;;;;;;20.13;58.46;101125.16;2306078;75;22070;-79
2023/10/10 05:29:38;;;;;;;14.33;4.35;;;;;;;20.14;58.42;101135.39;2282884;76;22363;-80
2023/10/10 05:32:54;;;;;;;22.15;4.53;;;;;;;20.11;58.32;101128.53;2280779;76;51550;-81
2023/10/10 05:35:47;;;;;;;14.03;4.17;;;;;;;20.09;58.33;101135.09;2260405;78;22266;-80
2023/10/10 05:38:50;;;;;;;16.45;4.05;;;;;;;20.09;58.70;101141.81;2308416;75;21731;-79
2023/10/10 05:41:55;;;;;;;16.27;4.62;;;;;;;20.08;58.57;101142.33;2257526;78;50377;-79
2023/10/10 05:44:57;;;;;;;15.40;4.40;;;;;;;20.08;58.68;101140.16;2284551;76;50762;-80
2023/10/10 05:47:59;;;;;;;18.55;4.33;;;;;;;20.10;58.68;101136.27;2255532;76;50729;-81
2023/10/10 05:51:03;;;;;;;15.30;4.62;;;;;;;20.09;58.90;101131.93;2232248;77;52382;-80
2023/10/10 05:54:07;;;;;;;19.50;4.83;;;;;;;20.15;58.48;101133.88;2264902;76;51861;-82
2023/10/10 05:57:10;;;;;;;17.82;5.42;;;;;;;20.16;58.47;101140.08;2257190;78;21750;-82
2023/10/10 06:00:15;;;;;;;27.32;6.72;;;;;;;20.20;58.66;101131.48;2285062;76;51750;-83
2023/10/10 06:03:17;;;;;;;18.55;4.62;;;;;;;20.16;58.90;101141.42;2310463;76;50159;-80
2023/10/10 06:06:21;;;;;;;22.58;5.22;;;;;;;20.18;58.79;101138.88;2257856;77;51477;-81
2023/10/10 06:09:26;;;;;;;23.00;5.12;;;;;;;20.14;58.81;101148.34;2282750;76;50753;-80
2023/10/10 06:12:28;;;;;;;16.60;4.75;;;;;;;20.13;58.96;101143.14;2258092;77;22149;-80
2023/10/10 06:15:36;;;;;;;16.95;4.70;;;;;;;20.13;58.77;101147.17;2308719;76;51017;-81
2023/10/10 06:18:35;;;;;;;15.83;4.85;;;;;;;20.12;58.89;101155.74;2257492;78;22184;-81
2023/10/10 06:21:40;;;;;;;27.32;12.58;;;;;;;20.13;58.94;101149.34;2257323;76;50701;-81
2023/10/10 06:24:44;;;;;;;26.33;6.47;;;;;;;20.16;59.37;101152.17;2267394;77;22352;-80
2023/10/10 06:27:46;;;;;;;24.15;7.35;;;;;;;20.31;58.45;101165.66;2257930;78;51911;-78
2023/10/10 06:30:52;;;;;;;23.47;6.03;;;;;;;20.34;58.34;101164.77;2280688;77;50642;-78
2023/10/10 06:33:56;;;;;;;19.02;6.50;;;;;;;20.35;58.20;101169.14;2282126;76;22505;-79
2023/10/10 06:36:56;;;;;;;19.92;5.45;;;;;;;20.39;58.13;101177.67;2257512;77;22205;-79
2023/10/10 06:39:58;;;;;;;21.73;5.62;;;;;;;20.37;58.08;101179.70;2307508;75;51186;-78
2023/10/10 06:43:07;;;;;;;14.18;5.08;;;;;;;20.35;58.03;101181.23;2256041;77;50632;-79
2023/10/10 06:46:04;;;;;;;18.30;4.60;;;;;;;20.34;58.00;101174.17;2281350;76;22323;-79
2023/10/10 06:49:07;;;;;;;13.30;4.97;;;;;;;20.33;57.96;101181.09;2281192;76;50697;-79
2023/10/10 06:52:10;;;;;;;23.45;4.83;;;;;;;20.33;57.92;101182.44;2278612;77;51465;-78
2023/10/10 06:55:21;;;;;;;19.30;5.58;;;;;;;20.26;58.30;101186.34;2263814;77;50499;-78
2023/10/10 06:58:20;;;;;;;25.05;5.42;;;;;;;20.24;58.32;101191.06;2264149;76;22119;-78
2023/10/10 07:01:24;;;;;;;22.35;5.22;;;;;;;20.23;58.44;101186.20;2283594;77;50672;-77
2023/10/10 07:04:35;;;;;;;16.75;5.17;;;;;;;20.19;58.67;101190.28;2258869;78;22344;-79
2023/10/10 07:07:30;;;;;;;14.03;4.20;;;;;;;20.15;58.60;101188.95;2258310;78;22264;-79
2023/10/10 07:10:36;;;;;;;15.80;4.50;;;;;;;20.14;58.67;101192.67;2281004;76;50684;-79
2023/10/10 07:13:44;;;;;;;23.22;4.78;;;;;;;20.13;58.67;101203.59;2281267;77;51804;-79
2023/10/10 07:16:45;;;;;;;14.80;4.10;;;;;;;20.11;58.74;101199.72;2281917;76;22876;-78
2023/10/10 07:23:07;;;;;;;9.25;3.85;;;;;;;20.10;58.99;101207.47;2311205;76;22158;-79
2023/10/10 07:26:30;;;;;;;15.83;4.15;;;;;;;20.18;58.64;101199.34;2310235;75;50171;-79
2023/10/10 07:30:16;;;;;;;20.45;4.15;;;;;;;20.26;58.64;101207.84;2282255;76;22236;-78
2023/10/10 07:32:31;;;;;;;34.80;5.20;;;;;;;20.25;58.81;101203.50;2240000;77;22297;-79
2023/10/10 07:35:36;;;;;;;12.00;3.65;;;;;;;20.22;58.91;101210.58;2309092;76;51505;-79
2023/10/10 07:38:37;;;;;;;17.12;3.72;;;;;;;20.19;58.98;101211.78;2255933;77;22348;-79
2023/10/10 07:41:44;;;;;;;12.07;3.55;;;;;;;20.20;58.85;101212.09;2280768;78;51480;-79
2023/10/10 07:44:43;;;;;;;16.00;4.00;;;;;;;20.15;59.08;101214.48;2304418;75;22251;-79
2023/10/10 07:51:07;;;;;;;13.60;3.85;;;;;;;20.14;59.05;101218.20;2311627;76;22573;-79
2023/10/10 07:54:12;;;;;;;21.07;3.27;;;;;;;20.14;59.09;101206.11;2266147;77;51781;-79
2023/10/10 07:57:18;;;;;;;14.33;3.65;;;;;;;20.19;58.87;101223.87;2232567;77;51134;-80
2023/10/10 08:00:26;;;;;;;13.53;3.40;;;;;;;20.21;58.82;101221.81;2281197;76;50992;-78
2023/10/10 08:03:24;;;;;;;13.95;3.95;;;;;;;20.18;58.85;101218.15;2282255;76;22139;-79
2023/10/10 08:06:27;;;;;;;14.00;3.22;;;;;;;20.20;58.78;101216.64;2308643;76;50528;-79
2023/10/10 08:09:29;;;;;;;15.03;3.17;;;;;;;20.18;58.90;101215.97;2308375;76;51471;-79
2023/10/10 08:12:32;;;;;;;10.38;3.30;;;;;;;20.15;58.87;101216.34;2282218;78;50158;-78
2023/10/10 08:15:35;;;;;;;10.50;3.15;;;;;;;20.13;58.94;101222.39;2257507;77;51450;-79
2023/10/10 08:21:49;;;;;;;10.85;3.08;;;;;;;20.13;58.95;101218.36;2307820;76;23059;-78
2023/10/10 08:24:52;;;;;;;11.55;3.65;;;;;;;20.23;58.59;101225.16;2312629;75;50462;-79
2023/10/10 08:27:55;;;;;;;11.12;3.22;;;;;;;20.31;58.27;101218.89;2280809;76;51520;-79
2023/10/10 08:30:57;;;;;;;8.45;3.20;;;;;;;20.34;58.19;101227.09;2280914;76;51517;-79
2023/10/10 08:33:59;;;;;;;6.83;2.80;;;;;;;20.34;58.19;101225.75;2257595;78;50744;-79
2023/10/10 08:37:06;;;;;;;10.30;2.87;;;;;;;20.35;58.13;101230.13;2282610;76;51318;-78
2023/10/10 08:40:17;;;;;;;11.53;3.20;;;;;;;20.33;58.16;101222.75;2306520;76;22322;-79
2023/10/10 08:43:09;;;;;;;8.88;2.83;;;;;;;20.34;58.15;101225.75;2306412;76;22192;-78
2023/10/10 08:46:12;;;;;;;15.55;3.65;;;;;;;20.31;58.34;101227.47;2282284;77;51740;-80
2023/10/10 08:49:15;;;;;;;10.98;3.05;;;;;;;20.29;58.37;101230.84;2280655;76;51489;-78
2023/10/10 08:52:17;;;;;;;11.10;3.15;;;;;;;20.27;58.54;101224.80;2280574;76;50669;-78
2023/10/10 08:55:26;;;;;;;9.58;2.90;;;;;;;20.29;58.37;101221.43;2283309;76;50286;-78
2023/10/10 08:58:28;;;;;;;8.85;3.60;;;;;;;20.30;58.30;101234.70;2281126;76;22193;-78
2023/10/10 09:01:35;;;;;;;6.47;2.83;;;;;;;20.28;58.43;101230.52;2308142;76;51096;-79
2023/10/10 09:04:38;;;;;;;7.92;2.80;;;;;;;20.21;58.60;101227.19;2285353;77;51539;-78
2023/10/10 09:07:43;;;;;;;12.70;2.67;;;;;;;20.22;58.51;101227.53;2288915;76;51556;-78
2023/10/10 09:10:46;;;;;;;7.75;3.27;;;;;;;20.19;58.70;101225.70;2255630;77;23041;-78
2023/10/10 09:13:51;;;;;;;6.97;3.05;;;;;;;;;;2256300;77;51228;-78
2023/10/10 09:16:53;;;;;;;11.10;3.30;;;;;;;20.16;58.75;101222.03;2256935;76;21778;-79
2023/10/10 09:20:00;;;;;;;7.22;2.50;;;;;;;20.15;58.80;101225.74;2231379;77;51776;-79
2023/10/10 09:23:11;;;;;;;6.50;2.75;;;;;;;20.14;58.79;101222.23;2275599;77;51554;-79
2023/10/10 09:29:42;;;;;;;8.73;3.05;;;;;;;20.35;58.19;101220.72;2225895;79;23059;-78
2023/10/10 09:32:42;;;;;;;7.72;3.22;;;;;;;20.39;58.06;101226.87;2199962;79;22272;-79
2023/10/10 09:35:48;;;;;;;6.85;3.47;;;;;;;20.40;58.00;101223.70;2245546;78;21996;-79
2023/10/10 09:38:48;;;;;;;6.08;2.52;;;;;;;20.41;57.96;101227.53;2200465;79;22332;-79
2023/10/10 09:48:17;;;;;;;7.10;2.60;;;;;;;20.41;57.90;101229.39;2222109;78;22282;-77
2023/10/10 09:54:25;;;;;;;9.20;3.20;;;;;;;20.35;58.03;101230.96;2217236;76;22873;-79
2023/10/10 09:57:26;;;;;;;10.20;3.05;;;;;;;20.38;58.08;101228.42;2260742;78;23093;-79
2023/10/10 10:00:45;;;;;;;6.47;2.75;;;;;;;20.39;57.96;101238.97;2258748;76;50939;-79
2023/10/10 10:03:49;;;;;;;6.15;3.25;;;;;;;20.34;58.16;101236.50;2259178;78;22335;-80
2023/10/10 10:06:52;;;;;;;4.10;2.70;;;;;;;20.35;58.14;101238.20;2279647;78;23004;-80
2023/10/10 10:10:20;;;;;;;6.17;2.70;;;;;;;20.30;58.32;101237.90;2260147;78;51238;-79
2023/10/10 10:13:37;;;;;;;11.97;3.20;;;;;;;20.27;58.42;101236.89;2281068;76;50271;-79
2023/10/10 10:16:44;;;;;;;7.40;2.77;;;;;;;20.24;58.51;101246.14;2280938;76;50346;-78
2023/10/10 10:19:46;;;;;;;7.12;2.77;;;;;;;20.21;58.59;101245.17;2280721;77;51654;-79
2023/10/10 10:22:59;;;;;;;7.92;2.77;;;;;;;20.18;58.71;101257.11;2286573;76;51156;-78
2023/10/10 10:26:08;;;;;;;8.43;3.02;;;;;;;20.22;58.46;101250.37;2283095;77;22240;-78
2023/10/10 10:29:22;;;;;;;7.62;3.55;;;;;;;20.28;58.25;101250.67;2259033;77;22252;-78
2023/10/10 10:32:24;;;;;;;9.95;3.42;;;;;;;20.30;58.21;101248.65;2280015;77;22426;-79
2023/10/10 10:35:36;;;;;;;14.10;3.92;;;;;;;20.29;58.30;101245.61;2307539;76;22381;-78
2023/10/10 10:38:31;;;;;;;9.37;3.17;;;;;;;20.30;58.26;101244.62;2283413;76;22468;-79
2023/10/10 10:41:42;;;;;;;7.55;3.12;;;;;;;20.26;58.44;101250.84;2296131;75;22410;-79
2023/10/10 10:45:23;;;;;;;8.58;2.83;;;;;;;20.22;58.52;101252.23;2303852;75;22421;-79
2023/10/10 10:47:47;;;;;;;16.42;3.17;;;;;;;20.21;58.47;101250.54;2263848;75;22562;-79
2023/10/10 10:50:58;;;;;;;8.28;2.95;;;;;;;;;;2272343;77;51939;-79
2023/10/10 10:53:59;;;;;;;9.10;2.87;;;;;;;20.15;58.81;101240.01;2285407;76;22325;-79
2023/10/10 10:57:04;;;;;;;7.33;2.75;;;;;;;20.29;58.36;101249.12;2255945;78;51325;-79
2023/10/10 11:00:19;;;;;;;;;;;;;;;20.36;58.10;101243.88;2262146;78;51915;-79
2023/10/10 11:03:11;;;;;;;6.62;3.05;;;;;;;20.42;57.96;101241.81;2308058;76;22191;-79
2023/10/10 11:06:20;;;;;;;5.22;2.65;;;;;;;20.42;57.94;101240.46;2283056;76;51500;-78
2023/10/10 11:09:28;;;;;;;6.62;2.70;;;;;;;20.41;57.93;101234.26;2259710;76;22421;-78
2023/10/10 11:12:31;;;;;;;5.28;2.85;;;;;;;20.39;58.02;101231.42;2282850;76;22173;-79
2023/10/10 11:15:37;;;;;;;7.58;2.47;;;;;;;20.37;58.05;101227.59;2283135;76;22292;-79
2023/10/10 11:18:37;;;;;;;8.80;3.00;;;;;;;20.39;57.98;101231.42;2282655;77;22374;-80
2023/10/10 11:21:47;;;;;;;6.45;2.70;;;;;;;20.38;58.00;101233.80;2282728;76;51372;-78
2023/10/10 11:24:47;;;;;;;5.70;2.58;;;;;;;20.39;57.99;101236.80;2258545;77;22356;-79
2023/10/10 11:27:50;;;;;;;7.33;2.92;;;;;;;20.41;57.91;101239.64;2284272;76;50390;-79
2023/10/10 11:30:57;;;;;;;6.42;2.77;;;;;;;20.43;57.96;101232.75;2282310;76;50411;-78
2023/10/10 11:34:10;;;;;;;4.62;2.60;;;;;;;20.41;57.96;101228.05;2281905;77;22414;-80
2023/10/10 11:37:30;;;;;;;7.35;3.08;;;;;;;20.35;58.28;101231.48;2280284;77;22572;-78
2023/10/10 11:40:31;;;;;;;8.03;2.72;;;;;;;20.33;58.26;101235.67;2279385;77;22201;-79
2023/10/10 11:43:27;;;;;;;4.58;2.40;;;;;;;20.25;58.64;101226.85;2280875;77;22356;-79
2023/10/10 11:46:28;;;;;;;8.05;2.90;;;;;;;20.22;58.69;101230.22;2282556;76;22295;-79
2023/10/10 11:49:32;;;;;;;5.15;2.60;;;;;;;20.19;58.77;101226.56;2282563;77;51446;-79
2023/10/10 11:52:34;;;;;;;8.60;2.92;;;;;;;20.19;58.83;101224.35;2286019;76;50679;-80
2023/10/10 11:55:36;;;;;;;7.12;2.80;;;;;;;20.26;58.62;101221.28;2257391;77;51434;-80
2023/10/10 11:58:39;;;;;;;4.65;3.00;;;;;;;20.37;58.15;101213.29;2282279;77;51771;-80
2023/10/10 12:01:49;;;;;;;7.62;2.62;;;;;;;20.39;58.11;101212.09;2257126;78;50944;-80
2023/10/10 12:04:52;;;;;;;8.08;2.90;;;;;;;20.39;58.10;101213.44;2280482;76;51471;-77
2023/10/10 12:07:54;;;;;;;5.53;2.70;;;;;;;20.41;58.03;101211.41;2282511;76;50901;-74
2023/10/10 12:11:11;;;;;;;8.23;2.35;;;;;;;20.41;58.05;101207.89;2256883;78;50696;-75
2023/10/10 12:14:16;;;;;;;12.82;2.92;;;;;;;20.33;59.28;101207.97;2304959;76;22469;-76
2023/10/10 12:17:14;;;;;;;9.88;3.10;;;;;;;20.34;58.86;101202.91;2282077;76;22154;-75
2023/10/10 12:20:16;;;;;;;9.30;2.70;;;;;;;20.32;58.85;101208.97;2307911;76;51490;-76
2023/10/10 12:23:20;;;;;;;10.75;3.00;;;;;;;20.35;58.69;101208.62;2288338;77;50066;-77
2023/10/10 12:26:23;;;;;;;6.97;2.70;;;;;;;20.35;58.60;101192.50;2270759;77;51523;-77
2023/10/10 12:29:25;;;;;;;7.22;2.70;;;;;;;20.38;58.41;101200.20;2271279;76;51586;-77
2023/10/10 12:32:27;;;;;;;5.00;2.67;;;;;;;20.33;58.50;101207.97;2284891;74;51147;-76
2023/10/10 12:35:30;;;;;;;4.33;2.70;;;;;;;20.32;58.55;101194.19;2251887;77;51605;-76
2023/10/10 12:38:33;;;;;;;8.63;2.90;;;;;;;20.29;58.68;101197.23;2250522;78;51565;-76
2023/10/10 12:41:43;;;;;;;7.37;2.60;;;;;;;20.26;58.82;101191.72;2249275;78;50517;-76
2023/10/10 12:44:39;;;;;;;7.12;2.75;;;;;;;20.23;58.83;101186.72;2272452;77;23002;-76
2023/10/10 12:47:41;;;;;;;5.62;2.60;;;;;;;20.21;58.86;101172.10;2225922;78;51186;-76
2023/10/10 12:50:48;;;;;;;7.42;2.65;;;;;;;20.19;58.92;101183.56;2250498;78;51444;-77
2023/10/10 12:53:47;;;;;;;4.03;2.47;;;;;;;20.18;59.07;101177.02;2274380;76;23046;-76
2023/10/10 12:56:55;;;;;;;6.25;2.60;;;;;;;20.28;58.64;101182.98;2252156;77;50262;-76
2023/10/10 13:00:13;;;;;;;6.72;2.33;;;;;;;20.40;58.24;101162.72;2273372;77;22303;-76
2023/10/10 13:02:57;;;;;;;6.17;2.87;;;;;;;20.43;58.19;101166.38;2226577;78;22552;-77
2023/10/10 13:06:03;;;;;;;6.92;2.72;;;;;;;20.49;57.99;101159.42;2225841;77;52629;-76
2023/10/10 13:09:08;;;;;;;6.60;2.72;;;;;;;20.46;58.03;101161.14;2273837;77;50644;-76
2023/10/10 13:12:18;;;;;;;3.45;2.35;;;;;;;20.45;58.04;101163.52;2250513;78;23165;-77
2023/10/10 13:15:18;;;;;;;7.50;2.50;;;;;;;20.44;58.05;101169.89;2241157;78;22368;-76
2023/10/10 13:18:22;;;;;;;3.33;2.17;;;;;;;20.41;58.13;101162.20;2290875;74;49873;-76
2023/10/10 13:21:24;;;;;;;3.72;2.30;;;;;;;20.42;58.10;101166.55;2231150;77;52628;-75
2023/10/10 13:24:26;;;;;;;4.75;2.62;;;;;;;20.42;58.05;101163.86;2283157;76;50770;-76
2023/10/10 13:27:29;;;;;;;5.10;2.72;;;;;;;20.41;58.07;101151.45;2254120;76;50388;-76
2023/10/10 13:30:31;;;;;;;5.90;3.12;;;;;;;20.40;58.12;101157.85;2277489;76;50628;-76
2023/10/10 13:33:34;;;;;;;5.97;2.70;;;;;;;20.42;58.03;101163.38;2279409;76;51526;-76
2023/10/10 13:36:36;;;;;;;5.40;2.33;;;;;;;20.38;58.15;101159.88;2230876;76;50932;-76
2023/10/10 13:39:48;;;;;;;6.30;2.45;;;;;;;20.40;58.12;101160.54;2279921;76;50638;-76
2023/10/10 13:42:49;;;;;;;4.60;2.55;;;;;;;20.42;58.16;101154.45;2306111;76;22291;-76
2023/10/10 13:45:57;;;;;;;6.53;2.22;;;;;;;20.37;58.29;101152.33;2257810;78;50216;-76
2023/10/10 13:48:58;;;;;;;8.03;2.58;;;;;;;20.29;58.65;101164.99;2235454;77;22745;-76
2023/10/10 13:52:04;;;;;;;7.87;2.25;;;;;;;20.23;58.74;101159.33;2281615;77;51457;-76
2023/10/10 13:55:04;;;;;;;6.83;2.20;;;;;;;20.23;58.77;101159.84;2254058;77;22259;-76
2023/10/10 13:58:10;;;;;;;9.90;2.60;;;;;;;20.32;58.42;101164.14;2274144;77;51492;-76
2023/10/10 14:01:18;;;;;;;3.83;2.25;;;;;;;20.37;58.27;101158.20;2251486;78;50419;-76
2023/10/10 14:04:27;;;;;;;5.05;2.55;;;;;;;20.38;58.21;101150.47;2251569;78;22362;-76
2023/10/10 14:07:28;;;;;;;6.35;2.10;;;;;;;20.38;58.21;101159.88;2274275;77;22316;-76
2023/10/10 14:10:41;;;;;;;6.53;2.42;;;;;;;20.36;58.22;101156.02;2226339;77;52411;-76
2023/10/10 14:13:44;;;;;;;6.35;2.40;;;;;;;20.37;58.18;101153.68;2250007;78;51551;-75
2023/10/10 14:16:46;;;;;;;4.95;2.45;;;;;;;20.38;58.15;101151.82;2274082;78;50221;-75
2023/10/10 14:19:49;;;;;;;3.65;2.33;;;;;;;20.35;58.14;101153.02;2249570;78;50271;-75
2023/10/10 14:22:51;;;;;;;6.67;2.15;;;;;;;20.35;58.26;101142.78;2275899;76;51552;-75
2023/10/10 14:26:03;;;;;;;6.47;2.67;;;;;;;20.32;58.27;101145.81;2310106;75;51163;-75
2023/10/10 14:29:04;;;;;;;4.78;2.20;;;;;;;20.36;58.16;101144.44;2281862;76;22280;-76
2023/10/10 14:32:02;;;;;;;5.45;2.60;;;;;;;20.41;58.04;101150.10;2257788;77;22308;-75
2023/10/10 14:35:05;;;;;;;3.70;2.33;;;;;;;20.40;58.02;101144.41;2256316;76;50019;-75
2023/10/10 14:38:07;;;;;;;10.38;2.87;;;;;;;20.40;58.02;101141.21;2256437;77;51471;-77
2023/10/10 14:41:11;;;;;;;4.12;2.08;;;;;;;20.41;58.33;101144.73;2281560;76;50237;-76
2023/10/10 14:44:13;;;;;;;4.03;2.22;;;;;;;20.38;58.13;101146.44;2281863;76;23659;-77
2023/10/10 14:47:20;;;;;;;4.08;2.02;;;;;;;20.36;58.17;101141.75;2258593;78;51403;-76
2023/10/10 14:50:23;;;;;;;7.70;2.35;;;;;;;20.35;58.37;101141.44;2281620;78;22335;-76
2023/10/10 14:53:24;;;;;;;5.53;2.40;;;;;;;20.35;58.94;101138.75;2264611;77;22421;-76
2023/10/10 14:56:34;;;;;;;9.65;2.52;;;;;;;20.37;59.02;101136.20;2309559;75;51390;-77
2023/10/10 14:59:33;;;;;;;8.43;2.55;;;;;;;20.37;59.09;101136.69;2257793;78;23136;-75
2023/10/10 15:02:35;;;;;;;;;;;;;;;20.40;59.08;101125.60;2262003;78;50309;-78
2023/10/10 15:05:37;;;;;;;7.25;2.30;;;;;;;20.39;58.81;101126.08;2282026;76;50789;-77
2023/10/10 15:08:43;;;;;;;6.60;2.70;;;;;;;20.38;58.70;101128.97;2232444;76;52282;-76
2023/10/10 15:11:45;;;;;;;4.22;2.20;;;;;;;20.37;58.65;101131.31;2257313;78;22488;-76
2023/10/10 15:14:48;;;;;;;7.22;2.58;;;;;;;20.37;58.62;101140.72;2281493;76;50312;-76
2023/10/10 15:17:50;;;;;;;5.45;2.20;;;;;;;20.35;58.59;101121.28;2257159;78;51570;-74
2023/10/10 15:20:52;;;;;;;7.87;2.37;;;;;;;20.34;58.62;101121.77;2258954;77;50257;-76
2023/10/10 15:23:55;;;;;;;10.15;3.40;;;;;;;20.37;58.66;101125.94;2264378;77;52955;-75
2023/10/10 15:26:59;;;;;;;8.25;2.60;;;;;;;20.35;58.64;101126.14;2230963;76;51473;-77
2023/10/10 15:30:08;;;;;;;8.08;2.80;;;;;;;20.33;58.75;101120.63;2257429;77;22390;-76
2023/10/10 15:33:06;;;;;;;10.25;2.37;;;;;;;20.34;58.88;101110.19;2281125;76;22375;-77
2023/10/10 15:36:09;;;;;;;12.68;2.35;;;;;;;20.36;59.06;101101.44;2256921;77;50818;-76
2023/10/10 15:39:11;;;;;;;13.95;2.90;;;;;;;20.37;59.10;101090.52;2307908;76;50613;-76
2023/10/10 15:42:13;;;;;;;13.18;2.50;;;;;;;20.43;59.37;101083.05;2282080;76;51486;-75
2023/10/10 15:45:21;;;;;;;9.65;2.98;;;;;;;20.46;59.46;101077.81;2281133;76;50710;-75
2023/10/10 15:48:25;;;;;;;14.85;2.98;;;;;;;20.48;59.37;101083.02;2283353;76;51135;-77
2023/10/10 15:51:27;;;;;;;25.68;2.90;;;;;;;20.49;59.34;101074.75;2229683;78;50833;-76
2023/10/10 15:54:33;;;;;;;21.30;3.15;;;;;;;20.48;59.42;101070.41;2281861;76;50648;-74
2023/10/10 15:57:35;;;;;;;25.50;3.40;;;;;;;20.52;59.51;101068.99;2232738;78;22816;-76
2023/10/10 16:00:39;;;;;;;37.15;3.90;;;;;;;20.54;59.70;101067.48;2280177;76;50674;-76
2023/10/10 16:03:51;;;;;;;37.42;4.50;;;;;;;20.56;59.66;101064.95;2307377;76;50294;-74
2023/10/10 16:06:54;;;;;;;36.73;3.77;;;;;;;20.55;59.47;101067.34;2305832;76;51749;-75
2023/10/10 16:09:56;;;;;;;30.80;3.20;;;;;;;20.51;59.35;101064.66;2280383;78;50340;-75
2023/10/10 16:12:59;;;;;;;32.98;3.72;;;;;;;20.46;59.39;101065.72;2281432;76;52332;-75
2023/10/10 16:16:05;;;;;;;22.55;3.50;;;;;;;20.44;59.31;101063.72;2256889;77;51750;-76
2023/10/10 16:19:08;;;;;;;19.90;2.80;;;;;;;20.42;59.29;101067.95;2257650;77;22391;-76
2023/10/10 16:22:13;;;;;;;20.75;3.62;;;;;;;20.41;59.22;101066.78;2281736;77;52407;-75
2023/10/10 16:25:16;;;;;;;13.98;3.50;;;;;;;20.40;59.18;101074.02;2263591;77;50247;-75
2023/10/10 16:28:22;;;;;;;22.15;3.33;;;;;;;20.38;59.21;101061.78;2256685;77;51593;-76
2023/10/10 16:31:29;;;;;;;42.27;5.45;;;;;;;20.46;59.96;101068.41;2281219;76;22386;-75
2023/10/10 16:34:26;;;;;;;35.60;4.95;;;;;;;20.51;60.14;101070.02;2306648;76;22492;-75
2023/10/10 16:37:28;;;;;;;69.03;6.35;;;;;;;20.57;59.93;101066.61;2282172;77;52556;-75
2023/10/10 16:40:30;;;;;;;47.05;6.20;;;;;;;20.59;59.91;101069.12;2308050;76;50723;-76
2023/10/10 16:43:36;;;;;;;55.28;5.10;;;;;;;20.61;60.18;101065.23;2280378;78;51518;-74
2023/10/10 16:46:38;;;;;;;59.53;5.90;;;;;;;20.65;59.96;101067.03;2258349;77;22843;-75